createdAt,value
2022-12-06T00:00:44.064Z,0.00
2022-12-06T00:01:44.105Z,0.00
2022-12-06T00:02:44.037Z,0.00
2022-12-06T00:03:44.129Z,0.00
2022-12-06T00:04:44.023Z,0.00
2022-12-06T00:05:46.393Z,0.00
2022-12-06T00:06:44.024Z,0.00
2022-12-06T00:07:44.026Z,0.00
2022-12-06T00:08:43.999Z,0.00
2022-12-06T00:09:43.946Z,0.00
2022-12-06T00:10:43.957Z,0.00
2022-12-06T00:11:43.943Z,0.00
2022-12-06T00:12:43.963Z,0.00
2022-12-06T00:13:43.917Z,0.00
2022-12-06T00:14:43.929Z,0.00
2022-12-06T00:15:43.900Z,0.00
2022-12-06T00:16:44.018Z,0.00
2022-12-06T00:17:43.953Z,0.00
2022-12-06T00:18:43.890Z,0.00
2022-12-06T00:19:43.853Z,0.00
2022-12-06T00:20:43.854Z,0.00
2022-12-06T00:21:43.838Z,0.00
2022-12-06T00:22:43.835Z,0.00
2022-12-06T00:23:43.820Z,0.00
2022-12-06T00:24:43.814Z,0.00
2022-12-06T00:25:43.792Z,0.00
2022-12-06T00:26:43.801Z,0.00
2022-12-06T00:27:43.770Z,0.00
2022-12-06T00:28:43.785Z,0.00
2022-12-06T00:29:43.757Z,0.00
2022-12-06T00:30:43.787Z,0.00
2022-12-06T00:31:43.830Z,0.00
2022-12-06T00:32:43.723Z,0.00
2022-12-06T00:33:43.707Z,0.00
2022-12-06T00:34:43.702Z,0.00
2022-12-06T00:35:43.698Z,0.00
2022-12-06T00:36:43.690Z,0.00
2022-12-06T00:37:43.653Z,0.00
2022-12-06T00:38:43.663Z,0.00
2022-12-06T00:39:43.644Z,0.00
2022-12-06T00:40:43.651Z,0.00
2022-12-06T00:41:43.628Z,0.00
2022-12-06T00:42:43.625Z,0.00
2022-12-06T00:43:43.596Z,0.00
2022-12-06T00:44:43.603Z,0.00
2022-12-06T00:45:43.656Z,0.00
2022-12-06T00:46:43.574Z,0.00
2022-12-06T00:47:43.550Z,0.00
2022-12-06T00:48:43.554Z,0.00
2022-12-06T00:49:43.532Z,0.00
2022-12-06T00:50:43.528Z,0.00
2022-12-06T00:51:43.527Z,0.00
2022-12-06T00:52:43.523Z,0.00
2022-12-06T00:53:43.507Z,0.00
2022-12-06T00:54:43.497Z,0.00
2022-12-06T00:55:43.465Z,0.00
2022-12-06T00:56:43.473Z,0.00
2022-12-06T00:57:43.480Z,0.00
2022-12-06T00:58:43.458Z,0.00
2022-12-06T00:59:43.426Z,0.00
2022-12-06T01:00:43.429Z,0.00
2022-12-06T01:01:43.474Z,0.00
2022-12-06T01:02:43.457Z,0.00
2022-12-06T01:03:43.476Z,0.00
2022-12-06T01:04:43.380Z,0.00
2022-12-06T01:05:43.359Z,0.00
2022-12-06T01:06:43.368Z,0.00
2022-12-06T01:07:43.426Z,0.00
2022-12-06T01:08:43.360Z,0.00
2022-12-06T01:09:43.342Z,0.00
2022-12-06T01:10:43.323Z,0.00
2022-12-06T01:11:43.301Z,0.00
2022-12-06T01:12:43.302Z,0.00
2022-12-06T01:13:43.278Z,0.00
2022-12-06T01:14:43.286Z,0.00
2022-12-06T01:15:43.279Z,0.00
2022-12-06T01:16:43.340Z,0.00
2022-12-06T01:17:43.230Z,0.00
2022-12-06T01:18:43.239Z,0.00
2022-12-06T01:19:43.219Z,0.00
2022-12-06T01:20:43.254Z,0.00
2022-12-06T01:21:43.188Z,0.00
2022-12-06T01:22:43.199Z,0.00
2022-12-06T01:23:43.176Z,0.00
2022-12-06T01:24:43.178Z,0.00
2022-12-06T01:25:43.144Z,0.00
2022-12-06T01:26:43.188Z,0.00
2022-12-06T01:27:43.130Z,0.00
2022-12-06T01:28:43.133Z,0.00
2022-12-06T01:29:43.100Z,0.00
2022-12-06T01:30:43.198Z,0.00
2022-12-06T01:31:43.087Z,0.00
2022-12-06T01:32:43.121Z,0.00
2022-12-06T01:33:43.066Z,0.00
2022-12-06T01:34:43.069Z,0.00
2022-12-06T01:35:43.043Z,0.00
2022-12-06T01:36:43.047Z,0.00
2022-12-06T01:37:43.047Z,0.00
2022-12-06T01:38:43.051Z,0.00
2022-12-06T01:39:42.998Z,0.00
2022-12-06T01:40:43.005Z,0.00
2022-12-06T01:41:42.974Z,0.00
2022-12-06T01:42:42.980Z,0.00
2022-12-06T01:43:42.958Z,0.00
2022-12-06T01:44:42.996Z,0.00
2022-12-06T01:45:43.030Z,0.00
2022-12-06T01:46:43.026Z,0.00
2022-12-06T01:47:42.912Z,0.00
2022-12-06T01:48:42.925Z,0.00
2022-12-06T01:49:42.896Z,0.00
2022-12-06T01:50:42.918Z,0.00
2022-12-06T01:51:42.883Z,0.00
2022-12-06T01:52:42.881Z,0.00
2022-12-06T01:53:42.851Z,0.00
2022-12-06T01:54:42.856Z,0.00
2022-12-06T01:55:42.854Z,0.00
2022-12-06T01:56:42.835Z,0.00
2022-12-06T01:57:42.822Z,0.00
2022-12-06T01:58:42.813Z,0.00
2022-12-06T01:59:42.788Z,0.00
2022-12-06T02:00:42.793Z,0.00
2022-12-06T02:01:42.923Z,0.00
2022-12-06T02:02:42.821Z,0.00
2022-12-06T02:03:42.748Z,0.00
2022-12-06T02:04:42.757Z,0.00
2022-12-06T02:05:42.756Z,0.00
2022-12-06T02:06:42.744Z,0.00
2022-12-06T02:07:42.745Z,0.00
2022-12-06T02:08:42.712Z,0.00
2022-12-06T02:09:42.691Z,0.00
2022-12-06T06:00:45.784Z,0.00
2022-12-06T06:01:47.424Z,0.00
2022-12-06T06:02:47.222Z,0.00
2022-12-06T06:03:47.926Z,0.00
2022-12-06T06:04:46.699Z,0.00
2022-12-06T06:05:46.669Z,0.00
2022-12-06T06:06:46.692Z,0.00
2022-12-06T06:07:46.705Z,0.00
2022-12-06T06:08:46.682Z,0.00
2022-12-06T06:09:46.633Z,0.00
2022-12-06T06:10:46.644Z,0.00
2022-12-06T06:11:46.609Z,0.00
2022-12-06T06:12:46.616Z,0.00
2022-12-06T06:13:46.595Z,0.00
2022-12-06T06:14:46.600Z,0.00
2022-12-06T06:15:46.567Z,0.00
2022-12-06T06:16:46.597Z,0.00
2022-12-06T06:17:46.547Z,0.00
2022-12-06T06:18:46.566Z,0.00
2022-12-06T06:19:51.318Z,0.00
2022-12-06T06:20:46.556Z,0.00
2022-12-06T06:21:46.511Z,0.00
2022-12-06T06:22:46.504Z,0.00
2022-12-06T06:23:46.482Z,0.00
2022-12-06T06:24:46.485Z,0.00
2022-12-06T06:25:46.476Z,0.00
2022-12-06T06:26:46.500Z,0.00
2022-12-06T06:27:46.444Z,0.00
2022-12-06T06:28:46.447Z,0.00
2022-12-06T06:29:46.421Z,0.00
2022-12-06T06:30:46.426Z,0.00
2022-12-06T06:31:46.532Z,0.00
2022-12-06T06:32:46.411Z,0.00
2022-12-06T06:33:46.379Z,0.00
2022-12-06T06:34:46.383Z,0.00
2022-12-06T06:35:46.366Z,0.00
2022-12-06T06:36:46.412Z,0.00
2022-12-06T06:37:46.364Z,0.00
2022-12-06T06:38:46.351Z,0.00
2022-12-06T06:39:46.320Z,0.00
2022-12-06T06:40:46.334Z,0.00
2022-12-06T06:41:46.296Z,0.00
2022-12-06T06:42:46.261Z,1.00
2022-12-06T06:43:46.297Z,0.00
2022-12-06T06:44:46.284Z,0.00
2022-12-06T06:45:46.270Z,1.00
2022-12-06T06:46:46.213Z,1.00
2022-12-06T06:47:46.188Z,1.00
2022-12-06T06:48:46.228Z,2.00
2022-12-06T06:49:46.176Z,2.00
2022-12-06T06:50:46.176Z,2.00
2022-12-06T06:51:46.145Z,1.00
2022-12-06T06:52:46.163Z,1.00
2022-12-06T06:53:46.123Z,1.00
2022-12-06T06:54:46.137Z,3.00
2022-12-06T06:55:46.110Z,2.00
2022-12-06T06:56:46.100Z,2.00
2022-12-06T06:57:46.073Z,2.00
2022-12-06T06:58:46.085Z,4.00
2022-12-06T06:59:46.113Z,3.00
2022-12-06T07:00:46.059Z,3.00
2022-12-06T07:01:46.077Z,7.00
2022-12-06T07:02:46.117Z,7.00
2022-12-06T07:03:46.038Z,7.00
2022-12-06T07:04:46.033Z,6.00
2022-12-06T07:05:46.038Z,6.00
2022-12-06T07:06:45.999Z,6.00
2022-12-06T07:07:46.084Z,8.00
2022-12-06T07:08:45.995Z,8.00
2022-12-06T07:09:45.978Z,10.00
2022-12-06T07:10:45.974Z,11.00
2022-12-06T07:11:45.953Z,10.00
2022-12-06T07:12:45.965Z,13.00
2022-12-06T07:13:52.408Z,14.00
2022-12-06T07:14:45.952Z,15.00
2022-12-06T07:15:45.890Z,14.00
2022-12-06T07:16:45.959Z,12.00
2022-12-06T07:17:45.901Z,17.00
2022-12-06T07:18:45.877Z,17.00
2022-12-06T07:19:45.869Z,17.00
2022-12-06T07:20:45.886Z,19.00
2022-12-06T07:21:45.836Z,22.00
2022-12-06T07:22:45.847Z,22.00
2022-12-06T07:23:45.809Z,21.00
2022-12-06T07:24:52.054Z,22.00
2022-12-06T07:25:45.793Z,22.00
2022-12-06T07:26:45.794Z,22.00
2022-12-06T07:27:45.784Z,20.00
2022-12-06T07:28:45.778Z,19.00
2022-12-06T07:29:45.753Z,21.00
2022-12-06T07:30:45.849Z,23.00
2022-12-06T07:31:45.749Z,31.00
2022-12-06T07:32:45.731Z,31.00
2022-12-06T07:33:45.718Z,27.00
2022-12-06T07:34:45.721Z,25.00
2022-12-06T07:36:14.688Z,28.00
2022-12-06T07:36:45.723Z,28.00
2022-12-06T07:37:45.661Z,35.00
2022-12-06T07:38:45.679Z,32.00
2022-12-06T07:39:45.648Z,31.00
2022-12-06T07:41:04.119Z,37.00
2022-12-06T07:41:45.652Z,42.00
2022-12-06T07:42:45.630Z,38.00
2022-12-06T07:43:45.607Z,34.00
2022-12-06T07:44:45.627Z,34.00
2022-12-06T07:45:45.668Z,34.00
2022-12-06T07:46:45.586Z,36.00
2022-12-06T07:47:45.610Z,41.00
2022-12-06T07:48:45.555Z,43.00
2022-12-06T07:49:45.564Z,42.00
2022-12-06T07:50:45.542Z,50.00
2022-12-06T07:51:45.560Z,57.00
2022-12-06T07:52:45.532Z,59.00
2022-12-06T07:53:45.512Z,64.00
2022-12-06T07:54:45.506Z,63.00
2022-12-06T07:55:45.504Z,73.00
2022-12-06T07:56:45.468Z,76.00
2022-12-06T07:57:45.478Z,79.00
2022-12-06T07:58:45.480Z,87.00
2022-12-06T07:59:45.467Z,93.00
2022-12-06T08:00:45.464Z,90.00
2022-12-06T08:01:45.500Z,98.00
2022-12-06T08:02:45.402Z,107.00
2022-12-06T08:03:45.411Z,109.00
2022-12-06T08:04:45.473Z,123.00
2022-12-06T08:05:45.402Z,142.00
2022-12-06T08:06:45.565Z,138.00
2022-12-06T08:07:45.446Z,141.00
2022-12-06T08:08:45.379Z,141.00
2022-12-06T08:09:45.385Z,155.00
2022-12-06T08:10:45.333Z,169.00
2022-12-06T08:11:45.335Z,177.00
2022-12-06T08:12:45.339Z,191.00
2022-12-06T08:13:45.309Z,192.00
2022-12-06T08:14:45.295Z,193.00
2022-12-06T08:15:45.336Z,198.00
2022-12-06T08:16:45.270Z,198.00
2022-12-06T08:17:45.280Z,214.00
2022-12-06T08:18:45.245Z,211.00
2022-12-06T08:19:45.251Z,217.00
2022-12-06T08:20:45.236Z,230.00
2022-12-06T08:21:45.240Z,223.00
2022-12-06T08:22:45.212Z,220.00
2022-12-06T08:23:45.219Z,228.00
2022-12-06T08:24:45.186Z,228.00
2022-12-06T08:25:45.179Z,242.00
2022-12-06T08:26:45.186Z,241.00
2022-12-06T08:27:45.162Z,251.00
2022-12-06T08:28:45.159Z,256.00
2022-12-06T08:29:45.163Z,265.00
2022-12-06T08:30:45.241Z,274.00
2022-12-06T08:31:45.164Z,280.00
2022-12-06T08:32:45.134Z,276.00
2022-12-06T08:33:45.102Z,289.00
2022-12-06T08:34:45.086Z,303.00
2022-12-06T08:35:45.103Z,314.00
2022-12-06T08:36:45.108Z,322.00
2022-12-06T08:37:45.077Z,337.00
2022-12-06T08:38:45.061Z,356.00
2022-12-06T08:39:45.043Z,368.00
2022-12-06T08:40:45.023Z,381.00
2022-12-06T08:41:45.021Z,397.00
2022-12-06T08:42:44.999Z,398.00
2022-12-06T08:43:45.020Z,409.00
2022-12-06T08:44:44.976Z,412.00
2022-12-06T08:45:44.999Z,427.00
2022-12-06T08:46:44.996Z,453.00
2022-12-06T08:47:44.977Z,468.00
2022-12-06T08:48:44.934Z,455.00
2022-12-06T08:49:44.973Z,435.00
2022-12-06T08:50:44.918Z,466.00
2022-12-06T08:51:44.919Z,505.00
2022-12-06T08:52:44.911Z,522.00
2022-12-06T08:53:44.908Z,529.00
2022-12-06T08:54:44.885Z,523.00
2022-12-06T08:55:44.872Z,521.00
2022-12-06T08:56:44.867Z,535.00
2022-12-06T08:57:44.851Z,536.00
2022-12-06T08:58:44.847Z,561.00
2022-12-06T08:59:44.857Z,568.00
2022-12-06T09:00:44.814Z,576.00
2022-12-06T09:01:44.896Z,563.00
2022-12-06T09:02:44.796Z,573.00
2022-12-06T09:03:44.793Z,598.00
2022-12-06T09:04:44.846Z,613.00
2022-12-06T09:05:44.798Z,622.00
2022-12-06T09:06:44.751Z,610.00
2022-12-06T09:07:44.795Z,607.00
2022-12-06T09:08:44.728Z,611.00
2022-12-06T09:09:44.761Z,592.00
2022-12-06T09:10:44.722Z,609.00
2022-12-06T09:11:44.715Z,622.00
2022-12-06T09:12:44.700Z,630.00
2022-12-06T09:13:44.697Z,613.00
2022-12-06T09:14:44.657Z,586.00
2022-12-06T09:15:44.726Z,592.00
2022-12-06T09:16:44.666Z,611.00
2022-12-06T09:17:44.648Z,603.00
2022-12-06T09:18:44.645Z,599.00
2022-12-06T09:19:44.624Z,640.00
2022-12-06T09:20:44.603Z,637.00
2022-12-06T09:21:44.601Z,644.00
2022-12-06T09:22:44.641Z,611.00
2022-12-06T09:23:44.611Z,606.00
2022-12-06T09:24:44.565Z,617.00
2022-12-06T09:25:44.565Z,586.00
2022-12-06T09:26:44.540Z,626.00
2022-12-06T09:27:44.532Z,639.00
2022-12-06T09:28:44.532Z,658.00
2022-12-06T09:29:44.518Z,653.00
2022-12-06T09:30:44.632Z,645.00
2022-12-06T09:31:44.568Z,654.00
2022-12-06T09:32:44.495Z,640.00
2022-12-06T09:33:44.483Z,692.00
2022-12-06T09:34:44.475Z,669.00
2022-12-06T09:35:44.455Z,710.00
2022-12-06T09:36:44.436Z,769.00
2022-12-06T09:37:44.433Z,746.00
2022-12-06T09:38:44.404Z,743.00
2022-12-06T09:39:44.409Z,741.00
2022-12-06T09:40:44.410Z,795.00
2022-12-06T09:41:44.394Z,802.00
2022-12-06T09:42:44.372Z,806.00
2022-12-06T09:43:44.403Z,816.00
2022-12-06T09:44:44.354Z,898.00
2022-12-06T09:45:44.376Z,878.00
2022-12-06T09:46:44.508Z,930.00
2022-12-06T09:47:44.339Z,990.00
2022-12-06T09:48:48.830Z,869.00
2022-12-06T09:49:44.303Z,925.00
2022-12-06T09:50:44.301Z,848.00
2022-12-06T09:51:44.323Z,927.00
2022-12-06T09:52:44.281Z,917.00
2022-12-06T09:53:44.285Z,870.00
2022-12-06T09:54:50.605Z,1020.00
2022-12-06T09:55:44.251Z,951.00
2022-12-06T09:56:44.219Z,956.00
2022-12-06T09:57:44.246Z,975.00
2022-12-06T09:58:44.207Z,1027.00
2022-12-06T09:59:44.204Z,1095.00
2022-12-06T10:00:44.177Z,1026.00
2022-12-06T10:01:44.231Z,1117.00
2022-12-06T10:02:44.291Z,1127.00
2022-12-06T10:03:44.152Z,1031.00
2022-12-06T10:04:44.163Z,1148.00
2022-12-06T10:05:46.942Z,1145.00
2022-12-06T10:06:44.116Z,1187.00
2022-12-06T10:07:44.261Z,1062.00
2022-12-06T10:08:44.208Z,1119.00
2022-12-06T10:09:44.100Z,1140.00
2022-12-06T10:10:44.090Z,1089.00
2022-12-06T10:11:44.090Z,1168.00
2022-12-06T10:12:44.089Z,1151.00
2022-12-06T10:13:44.065Z,1096.00
2022-12-06T10:14:44.031Z,1072.00
2022-12-06T10:15:44.169Z,1018.00
2022-12-06T10:16:44.095Z,1064.00
2022-12-06T10:17:49.104Z,1039.00
2022-12-06T10:18:44.011Z,944.00
2022-12-06T10:19:43.996Z,912.00
2022-12-06T10:20:43.969Z,947.00
2022-12-06T10:21:43.976Z,977.00
2022-12-06T10:22:43.961Z,952.00
2022-12-06T10:23:43.986Z,959.00
2022-12-06T10:24:43.923Z,982.00
2022-12-06T10:25:43.922Z,961.00
2022-12-06T10:26:43.915Z,995.00
2022-12-06T10:27:43.993Z,989.00
2022-12-06T10:28:43.933Z,999.00
2022-12-06T10:29:43.885Z,1045.00
2022-12-06T10:30:43.879Z,969.00
2022-12-06T10:31:43.949Z,929.00
2022-12-06T10:32:43.836Z,871.00
2022-12-06T10:33:43.868Z,918.00
2022-12-06T10:34:48.850Z,857.00
2022-12-06T10:35:43.843Z,849.00
2022-12-06T10:36:43.806Z,993.00
2022-12-06T10:37:43.799Z,897.00
2022-12-06T10:38:43.811Z,793.00
2022-12-06T10:39:47.307Z,725.00
2022-12-06T10:40:43.756Z,788.00
2022-12-06T10:41:43.774Z,863.00
2022-12-06T10:42:43.737Z,776.00
2022-12-06T10:43:43.745Z,686.00
2022-12-06T10:44:43.720Z,660.00
2022-12-06T10:45:43.725Z,660.00
2022-12-06T10:46:43.824Z,678.00
2022-12-06T10:47:43.696Z,610.00
2022-12-06T10:48:43.666Z,816.00
2022-12-06T10:49:43.688Z,752.00
2022-12-06T10:50:43.659Z,826.00
2022-12-06T10:51:43.666Z,769.00
2022-12-06T10:52:43.647Z,742.00
2022-12-06T10:53:43.626Z,817.00
2022-12-06T10:54:43.624Z,770.00
2022-12-06T10:55:43.639Z,754.00
2022-12-06T10:56:43.582Z,798.00
2022-12-06T10:57:43.578Z,1004.00
2022-12-06T10:58:43.573Z,997.00
2022-12-06T10:59:43.561Z,974.00
2022-12-06T11:00:43.576Z,997.00
2022-12-06T11:01:43.623Z,943.00
2022-12-06T11:02:43.518Z,1008.00
2022-12-06T11:03:43.517Z,998.00
2022-12-06T11:04:43.493Z,1164.00
2022-12-06T11:05:43.522Z,1239.00
2022-12-06T11:06:43.467Z,1190.00
2022-12-06T11:07:43.540Z,1095.00
2022-12-06T11:08:43.450Z,1276.00
2022-12-06T11:09:43.457Z,1301.00
2022-12-06T11:10:43.434Z,1272.00
2022-12-06T11:11:43.436Z,1300.00
2022-12-06T11:12:43.413Z,1163.00
2022-12-06T11:13:43.451Z,1207.00
2022-12-06T11:14:43.425Z,1246.00
2022-12-06T11:15:43.401Z,1227.00
2022-12-06T11:16:43.567Z,1183.00
2022-12-06T11:17:43.373Z,1143.00
2022-12-06T11:18:43.355Z,1051.00
2022-12-06T11:19:43.360Z,1101.00
2022-12-06T11:20:43.325Z,1023.00
2022-12-06T11:21:43.348Z,973.00
2022-12-06T11:22:43.310Z,959.00
2022-12-06T11:23:43.316Z,936.00
2022-12-06T11:24:47.740Z,976.00
2022-12-06T11:25:43.290Z,896.00
2022-12-06T11:26:43.261Z,954.00
2022-12-06T11:27:43.271Z,993.00
2022-12-06T11:28:43.243Z,1000.00
2022-12-06T11:29:43.274Z,985.00
2022-12-06T11:30:43.226Z,1035.00
2022-12-06T11:31:43.295Z,1088.00
2022-12-06T11:32:43.205Z,1090.00
2022-12-06T11:33:43.207Z,1090.00
2022-12-06T11:34:43.204Z,1115.00
2022-12-06T11:35:43.200Z,1141.00
2022-12-06T11:36:43.176Z,1180.00
2022-12-06T11:37:44.652Z,1221.00
2022-12-06T11:38:43.131Z,1284.00
2022-12-06T11:39:43.179Z,1302.00
2022-12-06T11:40:43.118Z,1311.00
2022-12-06T11:41:43.132Z,1382.00
2022-12-06T11:42:43.099Z,1262.00
2022-12-06T11:43:43.131Z,1261.00
2022-12-06T11:44:49.261Z,1279.00
2022-12-06T11:45:43.113Z,1306.00
2022-12-06T11:46:43.059Z,1274.00
2022-12-06T11:47:43.056Z,1187.00
2022-12-06T11:48:43.019Z,1157.00
2022-12-06T11:49:43.043Z,1142.00
2022-12-06T11:50:43.024Z,995.00
2022-12-06T11:51:43.001Z,984.00
2022-12-06T11:52:43.005Z,1019.00
2022-12-06T11:53:42.989Z,923.00
2022-12-06T11:54:42.959Z,882.00
2022-12-06T11:55:42.980Z,912.00
2022-12-06T11:56:42.964Z,1022.00
2022-12-06T11:57:42.969Z,944.00
2022-12-06T11:58:42.937Z,1035.00
2022-12-06T11:59:42.945Z,1144.00
2022-12-06T12:00:42.912Z,1138.00
2022-12-06T12:01:42.955Z,1088.00
2022-12-06T12:02:43.086Z,1078.00
2022-12-06T12:03:42.920Z,1084.00
2022-12-06T12:04:42.869Z,1064.00
2022-12-06T12:05:42.869Z,1032.00
2022-12-06T12:06:42.856Z,1043.00
2022-12-06T12:07:42.876Z,1037.00
2022-12-06T12:08:42.864Z,1073.00
2022-12-06T12:09:42.806Z,1084.00
2022-12-06T12:10:42.804Z,1067.00
2022-12-06T12:11:42.780Z,1131.00
2022-12-06T12:12:42.802Z,1026.00
2022-12-06T12:13:42.767Z,934.00
2022-12-06T12:14:47.919Z,1023.00
2022-12-06T12:15:42.746Z,1002.00
2022-12-06T12:16:42.862Z,920.00
2022-12-06T12:18:36.032Z,1065.00
2022-12-06T12:19:37.020Z,1082.00
2022-12-06T12:20:37.121Z,1072.00
2022-12-06T12:21:37.032Z,1024.00
2022-12-06T12:22:36.982Z,973.00
2022-12-06T12:23:37.031Z,1074.00
2022-12-06T12:24:56.428Z,1067.00
2022-12-06T12:25:36.963Z,1074.00
2022-12-06T12:26:36.931Z,1082.00
2022-12-06T12:27:36.923Z,1088.00
2022-12-06T12:28:36.913Z,1080.00
2022-12-06T12:29:36.934Z,1111.00
2022-12-06T12:30:36.936Z,1076.00
2022-12-06T12:31:36.918Z,1071.00
2022-12-06T12:32:36.869Z,1132.00
2022-12-06T12:33:36.865Z,1165.00
2022-12-06T12:34:41.561Z,1094.00
2022-12-06T12:35:37.597Z,1065.00
2022-12-06T12:36:36.850Z,1073.00
2022-12-06T12:37:36.808Z,932.00
2022-12-06T12:38:36.830Z,970.00
2022-12-06T12:39:36.788Z,894.00
2022-12-06T12:40:36.822Z,845.00
2022-12-06T12:41:36.806Z,850.00
2022-12-06T12:42:36.769Z,879.00
2022-12-06T12:43:36.764Z,850.00
2022-12-06T12:44:38.468Z,877.00
2022-12-06T12:45:36.771Z,933.00
2022-12-06T12:46:36.806Z,881.00
2022-12-06T12:47:36.825Z,903.00
2022-12-06T12:48:36.700Z,884.00
2022-12-06T12:49:36.712Z,862.00
2022-12-06T12:50:36.688Z,848.00
2022-12-06T12:51:36.836Z,820.00
2022-12-06T12:52:36.677Z,782.00
2022-12-06T12:53:36.674Z,761.00
2022-12-06T12:54:36.657Z,789.00
2022-12-06T12:55:36.646Z,857.00
2022-12-06T12:56:36.666Z,772.00
2022-12-06T12:57:36.658Z,765.00
2022-12-06T12:58:36.597Z,747.00
2022-12-06T12:59:36.582Z,701.00
2022-12-06T13:00:36.590Z,679.00
2022-12-06T13:01:37.562Z,717.00
2022-12-06T13:02:36.602Z,668.00
2022-12-06T13:03:51.218Z,692.00
2022-12-06T13:04:36.542Z,662.00
2022-12-06T13:05:40.689Z,657.00
2022-12-06T13:06:36.515Z,682.00
2022-12-06T13:07:36.547Z,641.00
2022-12-06T13:08:36.498Z,629.00
2022-12-06T13:09:36.486Z,673.00
2022-12-06T13:10:36.510Z,678.00
2022-12-06T13:11:36.464Z,671.00
2022-12-06T13:12:36.472Z,708.00
2022-12-06T13:13:36.424Z,722.00
2022-12-06T13:14:36.433Z,658.00
2022-12-06T13:15:36.404Z,635.00
2022-12-06T13:16:36.476Z,700.00
2022-12-06T13:17:36.410Z,731.00
2022-12-06T13:18:36.389Z,660.00
2022-12-06T13:19:36.379Z,652.00
2022-12-06T13:20:36.386Z,620.00
2022-12-06T13:21:36.356Z,598.00
2022-12-06T13:22:36.352Z,491.00
2022-12-06T13:23:36.341Z,373.00
2022-12-06T13:24:36.401Z,326.00
2022-12-06T13:25:36.307Z,300.00
2022-12-06T13:26:36.323Z,275.00
2022-12-06T13:27:36.275Z,244.00
2022-12-06T13:28:36.318Z,224.00
2022-12-06T13:29:36.247Z,202.00
2022-12-06T13:30:36.333Z,213.00
2022-12-06T13:31:36.233Z,245.00
2022-12-06T13:32:36.254Z,271.00
2022-12-06T13:33:36.218Z,291.00
2022-12-06T13:34:37.800Z,328.00
2022-12-06T13:35:36.181Z,357.00
2022-12-06T13:36:36.219Z,338.00
2022-12-06T13:37:36.157Z,302.00
2022-12-06T13:38:36.173Z,349.00
2022-12-06T13:39:36.156Z,359.00
2022-12-06T13:40:36.147Z,403.00
2022-12-06T13:41:36.167Z,446.00
2022-12-06T13:42:36.115Z,465.00
2022-12-06T13:43:39.712Z,427.00
2022-12-06T13:44:36.096Z,369.00
2022-12-06T13:45:36.099Z,287.00
2022-12-06T13:46:36.123Z,226.00
2022-12-06T13:47:36.071Z,189.00
2022-12-06T13:48:36.208Z,173.00
2022-12-06T13:49:40.955Z,186.00
2022-12-06T13:50:36.070Z,209.00
2022-12-06T13:51:36.011Z,238.00
2022-12-06T13:52:36.028Z,268.00
2022-12-06T13:53:35.984Z,264.00
2022-12-06T13:54:35.991Z,239.00
2022-12-06T13:55:35.963Z,218.00
2022-12-06T13:56:36.001Z,200.00
2022-12-06T13:57:35.974Z,230.00
2022-12-06T13:58:35.945Z,265.00
2022-12-06T13:59:35.917Z,279.00
2022-12-06T14:00:36.002Z,271.00
2022-12-06T14:01:39.930Z,257.00
2022-12-06T14:02:35.943Z,247.00
2022-12-06T14:03:35.905Z,242.00
2022-12-06T14:05:07.106Z,294.00
2022-12-06T14:06:14.869Z,298.00
2022-12-06T14:07:42.743Z,250.00
2022-12-06T14:08:43.677Z,242.00
2022-12-06T14:09:43.667Z,216.00
2022-12-06T14:10:43.640Z,179.00
2022-12-06T14:11:43.641Z,146.00
2022-12-06T14:12:43.622Z,130.00
2022-12-06T14:13:43.655Z,148.00
2022-12-06T14:14:43.590Z,156.00
2022-12-06T14:15:43.610Z,145.00
2022-12-06T14:16:43.719Z,120.00
2022-12-06T14:18:43.561Z,157.00
2022-12-06T14:19:43.561Z,151.00
2022-12-06T14:20:43.543Z,146.00
2022-12-06T14:21:43.554Z,168.00
2022-12-06T14:22:43.520Z,186.00
2022-12-06T14:23:43.831Z,224.00
2022-12-06T14:24:43.491Z,222.00
2022-12-06T14:25:43.494Z,236.00
2022-12-06T14:26:43.485Z,218.00
2022-12-06T14:27:43.564Z,216.00
2022-12-06T14:28:43.446Z,211.00
2022-12-06T14:29:43.473Z,192.00
2022-12-06T14:30:43.482Z,192.00
2022-12-06T14:31:43.462Z,179.00
2022-12-06T14:32:43.396Z,196.00
2022-12-06T14:33:43.403Z,181.00
2022-12-06T14:34:43.411Z,164.00
2022-12-06T14:35:43.386Z,174.00
2022-12-06T14:36:43.431Z,156.00
2022-12-06T14:37:43.401Z,166.00
2022-12-06T14:38:43.337Z,174.00
2022-12-06T14:39:43.355Z,170.00
2022-12-06T14:40:47.645Z,176.00
2022-12-06T14:41:43.341Z,176.00
2022-12-06T14:42:43.294Z,163.00
2022-12-06T14:43:43.312Z,163.00
2022-12-06T14:44:43.292Z,150.00
2022-12-06T14:45:43.309Z,150.00
2022-12-06T14:46:43.344Z,144.00
2022-12-06T14:47:43.286Z,141.00
2022-12-06T14:48:43.260Z,136.00
2022-12-06T14:49:43.251Z,128.00
2022-12-06T14:50:43.309Z,119.00
2022-12-06T14:51:43.212Z,127.00
2022-12-06T14:52:43.214Z,120.00
2022-12-06T14:53:43.203Z,106.00
2022-12-06T14:54:43.179Z,105.00
2022-12-06T14:55:43.199Z,103.00
2022-12-06T14:56:43.151Z,100.00
2022-12-06T14:57:43.154Z,91.00
2022-12-06T14:58:43.264Z,85.00
2022-12-06T15:00:43.111Z,71.00
2022-12-06T15:01:43.113Z,68.00
2022-12-06T15:02:43.164Z,65.00
2022-12-06T15:03:43.212Z,61.00
2022-12-06T15:04:43.138Z,56.00
2022-12-06T15:05:43.097Z,52.00
2022-12-06T15:06:43.076Z,47.00
2022-12-06T15:07:43.168Z,49.00
2022-12-06T15:08:43.035Z,46.00
2022-12-06T15:09:43.018Z,43.00
2022-12-06T15:10:42.991Z,40.00
2022-12-06T15:11:42.999Z,40.00
2022-12-06T15:12:42.971Z,36.00
2022-12-06T15:13:43.015Z,29.00
2022-12-06T15:14:42.969Z,27.00
2022-12-06T15:15:43.021Z,28.00
2022-12-06T15:16:43.064Z,28.00
2022-12-06T15:17:42.972Z,28.00
2022-12-06T15:18:43.059Z,27.00
2022-12-06T15:19:42.943Z,23.00
2022-12-06T15:20:42.929Z,24.00
2022-12-06T15:21:42.908Z,20.00
2022-12-06T15:22:42.862Z,19.00
2022-12-06T15:23:42.867Z,17.00
2022-12-06T15:24:42.842Z,14.00
2022-12-06T15:25:42.850Z,11.00
2022-12-06T15:26:42.877Z,13.00
2022-12-06T15:27:42.840Z,11.00
2022-12-06T15:28:42.803Z,11.00
2022-12-06T15:29:42.818Z,8.00
2022-12-06T15:30:42.837Z,8.00
2022-12-06T15:31:42.939Z,6.00
2022-12-06T15:32:42.772Z,6.00
2022-12-06T15:33:42.780Z,4.00
2022-12-06T15:34:42.743Z,5.00
2022-12-06T15:35:42.750Z,7.00
2022-12-06T15:36:42.719Z,4.00
2022-12-06T15:37:48.732Z,4.00
2022-12-06T15:38:42.698Z,2.00
2022-12-06T15:39:42.756Z,3.00
2022-12-06T15:40:42.691Z,3.00
2022-12-06T15:41:42.682Z,3.00
2022-12-06T15:42:42.659Z,1.00
2022-12-06T15:43:42.664Z,2.00
2022-12-06T15:44:47.353Z,2.00
2022-12-06T15:45:42.667Z,2.00
2022-12-06T15:46:42.713Z,1.00
2022-12-06T15:47:42.619Z,2.00
2022-12-06T15:48:42.591Z,1.00
2022-12-06T15:49:42.612Z,1.00
2022-12-06T15:50:42.578Z,1.00
2022-12-06T15:51:42.639Z,0.00
2022-12-06T15:52:42.606Z,0.00
2022-12-06T15:53:42.657Z,0.00
2022-12-06T15:54:42.649Z,0.00
2022-12-06T15:55:42.585Z,0.00
2022-12-06T15:56:42.560Z,0.00
2022-12-06T15:57:42.579Z,0.00
2022-12-06T15:58:42.541Z,0.00
2022-12-06T15:59:42.536Z,0.00
2022-12-06T16:00:42.525Z,0.00
2022-12-06T16:01:45.104Z,0.00
2022-12-06T16:02:42.511Z,0.00
2022-12-06T16:03:42.608Z,0.00
2022-12-06T16:04:42.479Z,0.00
2022-12-06T16:05:42.497Z,0.00
2022-12-06T16:06:42.473Z,0.00
2022-12-06T16:07:42.545Z,0.00
2022-12-06T16:08:42.451Z,0.00
2022-12-06T16:09:42.458Z,0.00
2022-12-06T16:11:10.692Z,0.00
2022-12-06T16:11:42.428Z,0.00
2022-12-06T16:12:42.410Z,0.00
2022-12-06T16:13:42.405Z,0.00
2022-12-06T16:14:42.372Z,0.00
2022-12-06T16:15:42.435Z,0.00
2022-12-06T16:16:43.638Z,0.00
2022-12-06T16:17:42.366Z,0.00
2022-12-06T16:18:42.357Z,0.00
2022-12-06T16:19:42.325Z,0.00
2022-12-06T16:20:42.302Z,0.00
2022-12-06T16:21:42.311Z,0.00
2022-12-06T16:22:42.312Z,0.00
2022-12-06T16:24:42.282Z,0.00
2022-12-06T16:25:42.295Z,0.00
2022-12-06T16:26:42.273Z,0.00
2022-12-06T16:27:42.255Z,0.00
2022-12-06T16:28:42.227Z,0.00
2022-12-06T16:29:42.221Z,0.00
2022-12-06T16:30:42.226Z,0.00
2022-12-06T16:31:42.311Z,0.00
2022-12-06T16:32:42.215Z,0.00
2022-12-06T16:33:42.246Z,0.00
2022-12-06T16:34:42.195Z,0.00
2022-12-06T16:35:42.164Z,0.00
2022-12-06T16:36:42.202Z,0.00
2022-12-06T16:37:42.142Z,0.00
2022-12-06T16:38:42.160Z,0.00
2022-12-06T16:39:42.110Z,0.00